createdAt,value
2023-05-10T00:01:44.223Z,14.73
2023-05-10T00:04:12.894Z,14.74
2023-05-10T00:06:40.157Z,14.71
2023-05-10T00:09:07.341Z,14.67
2023-05-10T00:11:34.488Z,14.69
2023-05-10T00:14:01.688Z,14.68
2023-05-10T00:16:28.973Z,14.62
2023-05-10T00:18:56.295Z,14.61
2023-05-10T00:21:24.798Z,14.59
2023-05-10T00:23:51.973Z,14.58
2023-05-10T00:26:19.147Z,14.59
2023-05-10T00:28:52.460Z,14.56
2023-05-10T00:31:19.814Z,14.63
2023-05-10T00:33:47.021Z,14.69
2023-05-10T00:36:14.177Z,14.72
2023-05-10T00:38:43.488Z,14.65
2023-05-10T00:41:10.717Z,14.68
2023-05-10T00:43:40.082Z,14.70
2023-05-10T00:46:07.406Z,14.69
2023-05-10T00:48:35.333Z,14.67
2023-05-10T00:51:02.746Z,14.66
2023-05-10T00:53:32.099Z,14.66
2023-05-10T00:56:00.785Z,14.53
2023-05-10T00:58:29.289Z,14.47
2023-05-10T01:00:56.638Z,14.29
2023-05-10T01:03:23.930Z,14.30
2023-05-10T01:05:51.181Z,14.20
2023-05-10T01:08:19.247Z,14.17
2023-05-10T01:10:46.511Z,13.84
2023-05-10T01:13:24.627Z,13.85
2023-05-10T01:15:51.966Z,13.86
2023-05-10T01:18:21.613Z,13.84
2023-05-10T01:20:59.346Z,13.69
2023-05-10T01:23:42.644Z,13.72
2023-05-10T01:26:32.576Z,13.78
2023-05-10T01:29:25.029Z,13.73
2023-05-10T01:32:21.864Z,13.71
2023-05-10T01:35:00.585Z,13.76
2023-05-10T01:37:46.396Z,13.80
2023-05-10T01:40:20.751Z,13.79
2023-05-10T01:42:52.245Z,13.81
2023-05-10T01:45:27.905Z,13.78
2023-05-10T01:48:06.171Z,13.82
2023-05-10T01:50:36.400Z,13.85
2023-05-10T01:53:07.453Z,13.84
2023-05-10T01:55:40.466Z,13.86
2023-05-10T01:58:13.885Z,13.93
2023-05-10T02:00:44.040Z,13.95
2023-05-10T02:03:14.561Z,13.95
2023-05-10T02:05:44.102Z,13.95
2023-05-10T02:08:12.958Z,13.96
2023-05-10T02:10:40.912Z,13.93
2023-05-10T02:13:09.172Z,13.95
2023-05-10T02:15:37.932Z,13.96
2023-05-10T02:18:07.026Z,13.94
2023-05-10T02:20:37.808Z,13.93
2023-05-10T02:23:06.007Z,13.90
2023-05-10T02:25:34.111Z,13.94
2023-05-10T02:28:04.055Z,13.90
2023-05-10T02:30:33.225Z,13.89
2023-05-10T02:33:01.057Z,13.93
2023-05-10T02:35:28.988Z,13.88
2023-05-10T02:37:59.399Z,13.90
2023-05-10T02:40:28.945Z,13.86
2023-05-10T02:42:58.600Z,13.83
2023-05-10T02:45:30.972Z,13.76
2023-05-10T02:47:59.472Z,13.82
2023-05-10T02:50:29.207Z,13.82
2023-05-10T02:53:02.078Z,13.66
2023-05-10T02:55:36.055Z,13.69
2023-05-10T02:58:03.973Z,13.62
2023-05-10T03:00:31.675Z,13.67
2023-05-10T03:02:59.014Z,13.62
2023-05-10T03:05:27.216Z,13.57
2023-05-10T03:07:55.524Z,13.49
2023-05-10T03:10:28.005Z,13.47
2023-05-10T03:13:06.724Z,13.48
2023-05-10T03:15:43.309Z,13.45
2023-05-10T03:18:16.201Z,13.39
2023-05-10T03:20:47.883Z,13.43
2023-05-10T03:23:23.448Z,13.36
2023-05-10T03:25:53.029Z,13.41
2023-05-10T03:28:21.789Z,13.43
2023-05-10T03:30:50.363Z,13.47
2023-05-10T03:33:17.585Z,13.48
2023-05-10T03:35:46.902Z,13.37
2023-05-10T03:38:15.096Z,13.40
2023-05-10T03:40:42.391Z,13.37
2023-05-10T03:43:11.049Z,13.33
2023-05-10T03:45:38.216Z,13.30
2023-05-10T03:48:06.474Z,13.26
2023-05-10T03:50:33.715Z,13.29
2023-05-10T03:53:01.297Z,13.26
2023-05-10T03:55:29.306Z,13.30
2023-05-10T03:57:56.946Z,13.26
2023-05-10T04:00:26.117Z,13.08
2023-05-10T04:02:56.010Z,13.16
2023-05-10T04:05:24.132Z,13.20
2023-05-10T04:07:53.760Z,13.19
2023-05-10T04:10:20.956Z,13.10
2023-05-10T04:12:48.197Z,13.17
2023-05-10T04:15:15.492Z,13.16
2023-05-10T04:17:44.080Z,13.18
2023-05-10T04:20:12.325Z,13.27
2023-05-10T04:22:39.822Z,13.32
2023-05-10T04:25:07.959Z,13.35
2023-05-10T04:27:35.270Z,13.33
2023-05-10T04:30:02.616Z,13.34
2023-05-10T04:32:29.872Z,13.30
2023-05-10T04:34:58.454Z,13.37
2023-05-10T04:37:25.626Z,13.43
2023-05-10T04:39:52.785Z,13.39
2023-05-10T04:42:19.922Z,13.42
2023-05-10T04:44:47.081Z,13.48
2023-05-10T04:47:14.284Z,13.45
2023-05-10T04:49:41.477Z,13.40
2023-05-10T04:52:10.028Z,13.51
2023-05-10T04:54:37.189Z,13.50
2023-05-10T04:57:04.493Z,13.52
2023-05-10T04:59:31.643Z,13.61
2023-05-10T05:01:58.872Z,13.71
2023-05-10T05:04:26.057Z,13.76
2023-05-10T05:06:54.032Z,13.75
2023-05-10T05:09:22.725Z,13.84
2023-05-10T05:11:49.869Z,13.90
2023-05-10T05:14:17.057Z,13.97
2023-05-10T05:16:44.337Z,13.99
2023-05-10T05:19:11.470Z,13.92
2023-05-10T05:21:38.675Z,14.00
2023-05-10T05:24:06.862Z,14.07
2023-05-10T05:26:35.384Z,14.13
2023-05-10T05:29:02.549Z,14.12
2023-05-10T05:31:30.033Z,14.09
2023-05-10T05:33:57.252Z,14.21
2023-05-10T05:36:24.421Z,14.28
2023-05-10T05:38:51.607Z,14.24
2023-05-10T05:41:18.745Z,14.33
2023-05-10T05:43:47.230Z,14.31
2023-05-10T05:46:14.483Z,14.36
2023-05-10T05:48:41.707Z,14.40
2023-05-10T05:51:08.846Z,14.33
2023-05-10T05:53:36.054Z,14.41
2023-05-10T05:56:03.465Z,14.48
2023-05-10T05:58:30.641Z,14.54
2023-05-10T06:00:59.136Z,14.51
2023-05-10T06:03:26.602Z,14.53
2023-05-10T06:05:53.926Z,14.56
2023-05-10T06:08:21.092Z,14.44
2023-05-10T06:10:48.236Z,14.49
2023-05-10T06:13:15.552Z,14.55
2023-05-10T06:15:42.755Z,14.49
2023-05-10T06:18:11.335Z,14.46
2023-05-10T06:20:38.550Z,14.35
2023-05-10T06:23:05.713Z,14.31
2023-05-10T06:25:32.896Z,14.24
2023-05-10T06:28:00.112Z,14.21
2023-05-10T06:30:27.443Z,14.20
2023-05-10T06:32:55.535Z,14.09
2023-05-10T06:35:24.298Z,14.12
2023-05-10T06:37:51.671Z,14.09
2023-05-10T06:40:19.104Z,14.00
2023-05-10T06:42:46.404Z,14.08
2023-05-10T06:45:13.956Z,14.07
2023-05-10T06:47:41.422Z,14.11
2023-05-10T06:50:09.387Z,14.05
2023-05-10T06:52:38.180Z,14.16
2023-05-10T06:55:06.238Z,14.11
2023-05-10T06:57:33.405Z,14.04
2023-05-10T07:00:00.802Z,14.12
2023-05-10T07:02:28.652Z,14.22
2023-05-10T07:04:55.948Z,14.22
2023-05-10T07:07:23.167Z,14.21
2023-05-10T07:09:51.704Z,14.31
2023-05-10T07:12:18.985Z,14.46
2023-05-10T07:14:46.264Z,14.44
2023-05-10T07:17:13.465Z,14.42
2023-05-10T07:19:41.896Z,14.37
2023-05-10T07:22:09.090Z,14.46
2023-05-10T07:24:36.393Z,14.59
2023-05-10T07:27:05.541Z,14.73
2023-05-10T07:29:32.722Z,14.73
2023-05-10T07:31:59.976Z,14.72
2023-05-10T07:34:27.150Z,14.82
2023-05-10T07:36:54.428Z,14.85
2023-05-10T07:39:27.459Z,14.52
2023-05-10T07:41:55.509Z,14.77
2023-05-10T07:44:24.169Z,14.69
2023-05-10T07:46:51.463Z,14.85
2023-05-10T07:49:18.815Z,14.74
2023-05-10T07:51:46.030Z,14.92
2023-05-10T07:54:13.647Z,14.82
2023-05-10T07:56:41.153Z,14.85
2023-05-10T07:59:09.750Z,14.96
2023-05-10T08:01:39.249Z,14.97
2023-05-10T08:04:06.536Z,14.93
2023-05-10T08:06:33.883Z,15.05
2023-05-10T08:09:01.125Z,15.01
2023-05-10T08:11:28.370Z,14.84
2023-05-10T08:13:55.520Z,14.97
2023-05-10T08:16:23.057Z,14.80
2023-05-10T08:18:51.882Z,14.74
2023-05-10T08:21:19.123Z,14.81
2023-05-10T08:23:46.288Z,15.05
2023-05-10T08:26:13.501Z,15.40
2023-05-10T08:28:40.707Z,15.57
2023-05-10T08:31:07.902Z,15.57
2023-05-10T08:33:35.052Z,15.82
2023-05-10T08:36:03.867Z,15.96
2023-05-10T08:38:31.056Z,16.06
2023-05-10T08:40:59.350Z,15.93
2023-05-10T08:43:28.451Z,15.92
2023-05-10T08:45:56.563Z,15.99
2023-05-10T08:48:24.692Z,15.65
2023-05-10T08:50:54.774Z,15.79
2023-05-10T08:53:25.639Z,15.87
2023-05-10T08:55:53.799Z,15.83
2023-05-10T08:58:21.185Z,15.91
2023-05-10T09:00:50.414Z,15.95
2023-05-10T09:03:17.686Z,16.31
2023-05-10T09:05:45.105Z,16.24
2023-05-10T09:08:13.202Z,16.61
2023-05-10T09:10:43.358Z,16.80
2023-05-10T09:13:11.527Z,17.00
2023-05-10T09:15:39.173Z,17.12
2023-05-10T09:18:06.484Z,17.21
2023-05-10T09:20:33.816Z,17.40
2023-05-10T09:23:01.010Z,17.36
2023-05-10T09:25:28.362Z,17.47
2023-05-10T09:27:56.876Z,17.70
2023-05-10T09:30:28.197Z,17.80
2023-05-10T09:32:56.571Z,17.84
2023-05-10T09:35:29.334Z,17.97
2023-05-10T09:38:00.204Z,17.74
2023-05-10T09:40:28.891Z,17.65
2023-05-10T09:42:58.853Z,17.37
2023-05-10T09:45:27.532Z,16.97
2023-05-10T09:47:54.941Z,16.88
2023-05-10T09:50:23.166Z,16.69
2023-05-10T09:52:51.791Z,16.81
2023-05-10T09:55:20.426Z,17.05
2023-05-10T09:57:48.534Z,17.45
2023-05-10T10:00:20.926Z,17.60
2023-05-10T10:02:54.699Z,18.05
2023-05-10T10:05:22.036Z,18.11
2023-05-10T10:07:49.329Z,17.81
2023-05-10T10:10:16.760Z,17.89
2023-05-10T10:12:44.050Z,17.80
2023-05-10T10:15:12.146Z,17.88
2023-05-10T10:17:42.098Z,18.05
2023-05-10T10:20:12.128Z,18.24
2023-05-10T10:22:39.492Z,18.62
2023-05-10T10:25:07.688Z,18.91
2023-05-10T10:27:44.999Z,19.01
2023-05-10T10:30:22.583Z,19.17
2023-05-10T10:33:13.592Z,19.05
2023-05-10T10:35:47.747Z,18.68
2023-05-10T10:38:14.923Z,18.48
2023-05-10T10:40:42.114Z,18.07
2023-05-10T10:43:26.127Z,17.81
2023-05-10T10:46:13.588Z,17.52
2023-05-10T10:48:42.889Z,17.74
2023-05-10T10:51:11.565Z,17.55
2023-05-10T10:53:41.698Z,17.56
2023-05-10T10:56:10.180Z,17.42
2023-05-10T10:58:39.040Z,17.48
2023-05-10T11:01:15.811Z,17.44
2023-05-10T11:04:20.102Z,16.85
2023-05-10T11:06:47.341Z,16.00
2023-05-10T11:09:14.473Z,16.04
2023-05-10T11:11:53.140Z,15.81
2023-05-10T11:14:21.570Z,15.04
2023-05-10T11:16:48.800Z,15.31
2023-05-10T11:19:18.689Z,15.07
2023-05-10T11:21:47.127Z,15.30
2023-05-10T11:24:15.500Z,15.41
2023-05-10T11:26:43.246Z,15.55
2023-05-10T11:29:10.509Z,15.67
2023-05-10T11:31:43.625Z,15.67
2023-05-10T11:34:10.784Z,16.09
2023-05-10T11:36:39.299Z,16.35
2023-05-10T11:39:06.688Z,16.46
2023-05-10T11:41:33.880Z,16.59
2023-05-10T11:44:01.196Z,16.62
2023-05-10T11:46:28.968Z,16.81
2023-05-10T11:48:59.845Z,16.74
2023-05-10T11:51:27.071Z,16.69
2023-05-10T11:53:57.143Z,16.77
2023-05-10T11:56:24.355Z,16.66
2023-05-10T11:58:54.596Z,16.50
2023-05-10T12:01:22.484Z,16.41
2023-05-10T12:03:50.797Z,16.37
2023-05-10T12:06:19.662Z,16.43
2023-05-10T12:08:48.381Z,16.15
2023-05-10T12:11:16.907Z,16.14
2023-05-10T12:13:45.238Z,16.23
2023-05-10T12:16:16.746Z,16.30
2023-05-10T12:18:44.234Z,16.20
2023-05-10T12:21:11.920Z,16.29
2023-05-10T12:23:39.514Z,16.32
2023-05-10T12:26:07.301Z,16.28
2023-05-10T12:28:35.895Z,16.29
2023-05-10T12:31:03.926Z,16.48
2023-05-10T12:33:37.308Z,16.59
2023-05-10T12:36:04.823Z,16.63
2023-05-10T12:38:34.436Z,16.74
2023-05-10T12:41:03.110Z,16.75
2023-05-10T12:43:31.019Z,16.76
2023-05-10T12:45:59.938Z,16.85
2023-05-10T12:48:27.148Z,16.99
2023-05-10T12:50:54.348Z,16.96
2023-05-10T12:53:21.492Z,16.82
2023-05-10T12:55:48.644Z,16.10
2023-05-10T12:58:31.515Z,16.08
2023-05-10T13:01:04.240Z,15.78
2023-05-10T13:03:31.554Z,15.70
2023-05-10T13:05:58.943Z,15.81
2023-05-10T13:08:26.107Z,16.12
2023-05-10T13:10:53.383Z,16.47
2023-05-10T13:13:20.585Z,16.70
2023-05-10T13:15:47.780Z,16.94
2023-05-10T13:18:16.395Z,17.27
2023-05-10T13:20:43.626Z,17.26
2023-05-10T13:23:11.007Z,17.06
2023-05-10T13:25:38.445Z,17.21
2023-05-10T13:28:05.688Z,17.26
2023-05-10T13:30:32.905Z,17.18
2023-05-10T13:33:00.097Z,17.28
2023-05-10T13:35:28.673Z,17.26
2023-05-10T13:37:55.877Z,17.36
2023-05-10T13:40:23.048Z,17.19
2023-05-10T13:42:50.253Z,17.00
2023-05-10T13:45:17.730Z,17.07
2023-05-10T13:47:45.037Z,17.19
2023-05-10T13:50:12.277Z,17.14
2023-05-10T13:52:40.918Z,17.32
2023-05-10T13:55:08.934Z,17.55
2023-05-10T13:57:36.148Z,17.68
2023-05-10T14:00:03.968Z,18.00
2023-05-10T14:02:35.193Z,18.28
2023-05-10T14:05:02.423Z,18.61
2023-05-10T14:07:29.570Z,18.68
2023-05-10T14:09:58.083Z,18.48
2023-05-10T14:12:25.276Z,18.80
2023-05-10T14:14:52.470Z,18.59
2023-05-10T14:17:19.602Z,18.55
2023-05-10T14:19:46.753Z,18.42
2023-05-10T14:22:13.910Z,18.67
2023-05-10T14:24:41.069Z,18.75
2023-05-10T14:27:09.560Z,19.05
2023-05-10T14:29:36.714Z,19.05
2023-05-10T14:32:04.001Z,19.23
2023-05-10T14:34:31.228Z,18.93
2023-05-10T14:36:58.393Z,19.25
2023-05-10T14:39:25.575Z,18.86
2023-05-10T14:41:52.742Z,17.88
2023-05-10T14:44:21.267Z,17.80
2023-05-10T14:46:48.447Z,17.96
2023-05-10T14:49:15.589Z,17.78
2023-05-10T14:51:42.749Z,17.92
2023-05-10T14:54:09.919Z,17.87
2023-05-10T14:56:37.112Z,17.54
2023-05-10T14:59:04.301Z,17.93
2023-05-10T15:01:33.261Z,18.05
2023-05-10T15:04:00.518Z,18.03
2023-05-10T15:06:31.827Z,17.99
2023-05-10T15:08:59.076Z,17.95
2023-05-10T15:11:26.252Z,17.71
2023-05-10T15:13:53.463Z,17.73
2023-05-10T15:16:20.651Z,17.52
2023-05-10T15:18:49.447Z,17.36
2023-05-10T15:21:16.715Z,17.14
2023-05-10T15:23:43.932Z,17.16
2023-05-10T15:26:11.118Z,17.13
2023-05-10T15:28:38.273Z,17.18
2023-05-10T15:31:05.709Z,17.23
2023-05-10T15:33:32.896Z,17.25
2023-05-10T15:36:01.432Z,17.28
2023-05-10T15:38:28.640Z,17.27
2023-05-10T15:40:57.564Z,17.34
2023-05-10T15:43:24.736Z,17.35
2023-05-10T15:45:51.853Z,17.49
2023-05-10T15:48:19.057Z,17.44
2023-05-10T15:50:46.291Z,17.36
2023-05-10T15:53:14.816Z,17.44
2023-05-10T15:55:41.968Z,17.29
2023-05-10T15:58:09.156Z,17.15
2023-05-10T16:00:36.574Z,17.14
2023-05-10T16:03:03.968Z,17.19
2023-05-10T16:05:31.294Z,17.12
2023-05-10T16:07:58.596Z,17.07
2023-05-10T16:10:27.401Z,17.07
2023-05-10T16:12:55.086Z,17.14
2023-05-10T16:15:22.309Z,17.05
2023-05-10T16:17:49.823Z,17.12
2023-05-10T16:20:17.248Z,17.19
2023-05-10T16:22:44.452Z,17.24
2023-05-10T16:25:13.503Z,17.45
2023-05-10T16:27:42.302Z,17.49
2023-05-10T16:30:09.949Z,17.52
2023-05-10T16:32:37.166Z,17.55
2023-05-10T16:35:05.027Z,17.72
2023-05-10T16:37:32.167Z,17.68
2023-05-10T16:39:59.294Z,17.84
2023-05-10T16:42:27.493Z,17.90
2023-05-10T16:44:56.064Z,17.91
2023-05-10T16:47:23.316Z,17.96
2023-05-10T16:49:50.507Z,18.00
2023-05-10T16:52:17.723Z,17.96
2023-05-10T16:54:44.849Z,18.02
2023-05-10T16:57:11.973Z,17.81
2023-05-10T16:59:39.146Z,17.89
2023-05-10T17:02:07.745Z,18.05
2023-05-10T17:04:34.962Z,18.02
2023-05-10T17:07:02.139Z,17.89
2023-05-10T17:09:29.294Z,17.85
2023-05-10T17:11:56.459Z,17.64
2023-05-10T17:14:24.165Z,17.64
2023-05-10T17:16:51.367Z,17.67
2023-05-10T17:19:19.938Z,17.66
2023-05-10T17:21:47.113Z,17.55
2023-05-10T17:24:14.408Z,17.52
2023-05-10T17:26:41.702Z,17.26
2023-05-10T17:29:08.861Z,17.21
2023-05-10T17:31:36.125Z,17.08
2023-05-10T17:34:05.392Z,16.92
2023-05-10T17:36:34.476Z,16.82
2023-05-10T17:39:01.622Z,16.67
2023-05-10T17:41:28.767Z,16.50
2023-05-10T17:43:55.945Z,16.38
2023-05-10T17:46:23.163Z,16.36
2023-05-10T17:48:50.432Z,16.21
2023-05-10T17:51:18.724Z,16.13
2023-05-10T17:53:47.320Z,16.04
2023-05-10T17:56:14.455Z,15.91
2023-05-10T17:58:41.605Z,15.91
2023-05-10T18:01:08.841Z,15.79
2023-05-10T18:03:36.077Z,15.73
2023-05-10T18:06:03.854Z,15.63
2023-05-10T18:08:31.228Z,15.57
2023-05-10T18:10:59.807Z,15.41
2023-05-10T18:13:26.957Z,15.38
2023-05-10T18:15:54.156Z,15.18
2023-05-10T18:18:21.452Z,15.13
2023-05-10T18:20:48.729Z,15.02
2023-05-10T18:23:15.906Z,14.99
2023-05-10T18:25:43.049Z,14.94
2023-05-10T18:28:11.577Z,14.87
2023-05-10T18:30:38.778Z,14.83
2023-05-10T18:33:05.985Z,14.74
2023-05-10T18:35:33.463Z,14.65
2023-05-10T18:38:00.904Z,14.62
2023-05-10T18:40:28.132Z,14.63
2023-05-10T18:42:55.303Z,14.48
2023-05-10T18:45:23.828Z,14.35
2023-05-10T18:47:51.116Z,14.23
2023-05-10T18:50:18.429Z,14.18
2023-05-10T18:52:45.934Z,14.16
2023-05-10T18:55:13.229Z,14.06
2023-05-10T18:57:40.441Z,14.00
2023-05-10T19:00:09.114Z,13.73
2023-05-10T19:02:37.777Z,13.56
2023-05-10T19:05:05.722Z,13.30
2023-05-10T19:07:33.443Z,13.21
2023-05-10T19:10:00.711Z,13.09
2023-05-10T19:12:27.977Z,13.08
2023-05-10T19:14:55.177Z,12.97
2023-05-10T19:17:22.432Z,12.84
2023-05-10T19:19:50.967Z,12.83
2023-05-10T19:22:21.417Z,12.70
2023-05-10T19:24:56.982Z,12.74
2023-05-10T19:27:24.372Z,12.77
2023-05-10T19:29:51.889Z,12.66
2023-05-10T19:32:19.134Z,12.67
2023-05-10T19:34:46.346Z,12.60
2023-05-10T19:37:14.902Z,12.55
2023-05-10T19:39:42.112Z,12.43
2023-05-10T19:42:09.303Z,12.35
2023-05-10T19:44:36.446Z,12.30
2023-05-10T19:47:03.719Z,12.19
2023-05-10T19:49:31.106Z,12.02
2023-05-10T19:51:58.333Z,12.00
2023-05-10T19:54:26.966Z,11.91
2023-05-10T19:56:54.165Z,11.88
2023-05-10T19:59:21.341Z,11.90
2023-05-10T20:01:48.597Z,11.89
2023-05-10T20:04:15.820Z,11.89
2023-05-10T20:06:43.010Z,11.88
2023-05-10T20:09:10.188Z,11.93
2023-05-10T20:11:38.781Z,11.95
2023-05-10T20:14:05.947Z,11.99
2023-05-10T20:16:33.175Z,12.01
2023-05-10T20:19:00.557Z,12.02
2023-05-10T20:21:27.760Z,12.03
2023-05-10T20:23:54.967Z,12.05
2023-05-10T20:26:22.154Z,12.05
2023-05-10T20:28:50.665Z,12.06
2023-05-10T20:31:17.873Z,12.06
2023-05-10T20:33:45.043Z,12.05
2023-05-10T20:36:12.254Z,12.09
2023-05-10T20:38:39.399Z,12.14
2023-05-10T20:41:06.577Z,12.17
2023-05-10T20:43:33.744Z,12.17
2023-05-10T20:46:02.305Z,12.22
2023-05-10T20:48:29.479Z,12.25
2023-05-10T20:50:56.950Z,12.27
2023-05-10T20:53:24.211Z,12.28
2023-05-10T20:55:51.345Z,12.32
2023-05-10T20:58:18.554Z,12.38
2023-05-10T21:00:45.787Z,12.45
2023-05-10T21:03:15.093Z,12.48
2023-05-10T21:05:42.287Z,12.47
2023-05-10T21:08:09.429Z,12.47
2023-05-10T21:10:36.591Z,12.51
2023-05-10T21:13:03.752Z,12.48
2023-05-10T21:15:30.965Z,12.49
2023-05-10T21:17:58.323Z,12.53
2023-05-10T21:20:26.926Z,12.48
2023-05-10T21:22:54.087Z,12.45
2023-05-10T21:25:22.019Z,12.42
2023-05-10T21:27:49.200Z,12.37
2023-05-10T21:30:16.709Z,12.42
2023-05-10T21:32:44.165Z,12.46
2023-05-10T21:35:11.448Z,12.38
2023-05-10T21:37:40.032Z,12.42
2023-05-10T21:40:08.156Z,12.42
2023-05-10T21:42:35.334Z,12.38
2023-05-10T21:45:02.559Z,12.38
2023-05-10T21:47:29.768Z,12.36
2023-05-10T21:49:56.987Z,12.36
2023-05-10T21:52:24.120Z,12.38
2023-05-10T21:54:52.700Z,12.34
2023-05-10T21:57:19.812Z,12.33
2023-05-10T21:59:46.951Z,12.38
2023-05-10T22:02:14.174Z,12.37
2023-05-10T22:04:41.338Z,12.31
2023-05-10T22:07:08.461Z,12.28
2023-05-10T22:09:35.613Z,12.25
2023-05-10T22:12:04.562Z,12.25
2023-05-10T22:14:31.734Z,12.23
2023-05-10T22:16:59.004Z,12.28
2023-05-10T22:19:26.230Z,12.25
2023-05-10T22:21:53.581Z,12.22
2023-05-10T22:24:20.760Z,12.17
2023-05-10T22:26:47.937Z,12.20
2023-05-10T22:29:16.599Z,12.22
2023-05-10T22:31:44.796Z,12.26
2023-05-10T22:34:11.917Z,12.23
2023-05-10T22:36:39.050Z,12.21
2023-05-10T22:39:06.223Z,12.25
2023-05-10T22:41:33.866Z,12.26
2023-05-10T22:44:01.380Z,12.28
2023-05-10T22:46:31.465Z,12.26
2023-05-10T22:48:58.694Z,12.22
2023-05-10T22:51:25.829Z,12.19
2023-05-10T22:53:52.966Z,12.16
2023-05-10T22:56:20.491Z,12.13
2023-05-10T22:58:47.858Z,12.16
2023-05-10T23:01:15.194Z,12.09
2023-05-10T23:03:43.780Z,12.10
2023-05-10T23:06:10.942Z,12.09
2023-05-10T23:08:38.120Z,12.05
2023-05-10T23:11:05.394Z,12.02
2023-05-10T23:13:32.526Z,12.00
2023-05-10T23:16:05.037Z,11.98
2023-05-10T23:18:32.274Z,11.93
2023-05-10T23:21:00.895Z,11.87
2023-05-10T23:23:28.110Z,11.84
2023-05-10T23:25:55.307Z,11.82
2023-05-10T23:28:22.471Z,11.84
2023-05-10T23:30:54.447Z,11.85
2023-05-10T23:33:21.974Z,11.81
2023-05-10T23:35:49.133Z,11.83
2023-05-10T23:38:17.629Z,11.88
2023-05-10T23:40:48.315Z,11.86
2023-05-10T23:43:15.787Z,11.82
2023-05-10T23:45:43.094Z,11.75
2023-05-10T23:48:10.288Z,11.73
2023-05-10T23:50:37.494Z,11.68
2023-05-10T23:53:04.650Z,11.68
2023-05-10T23:55:33.219Z,11.63
2023-05-10T23:58:00.342Z,11.54
